createdAt,value
2019-04-20T00:00:06.743Z,14.20
2019-04-20T00:02:55.508Z,14.20
2019-04-20T00:05:43.397Z,14.10
2019-04-20T00:08:36.102Z,14.10
2019-04-20T00:11:29.511Z,14.10
2019-04-20T00:14:17.360Z,14.00
2019-04-20T00:17:03.051Z,13.90
2019-04-20T00:19:54.555Z,14.00
2019-04-20T00:22:57.885Z,13.90
2019-04-20T00:26:24.891Z,13.90
2019-04-20T00:29:27.727Z,13.80
2019-04-20T00:32:07.764Z,13.80
2019-04-20T00:34:47.076Z,13.70
2019-04-20T00:37:35.994Z,13.70
2019-04-20T00:40:25.632Z,13.60
2019-04-20T00:43:21.029Z,13.50
2019-04-20T00:46:08.281Z,13.40
2019-04-20T00:49:00.872Z,13.30
2019-04-20T00:52:07.475Z,13.20
2019-04-20T00:54:32.552Z,13.20
2019-04-20T00:57:34.076Z,13.20
2019-04-20T01:03:15.836Z,13.20
2019-04-20T01:06:16.272Z,13.10
2019-04-20T01:08:55.082Z,13.10
2019-04-20T01:11:46.741Z,13.10
2019-04-20T01:14:41.532Z,13.10
2019-04-20T01:17:23.498Z,13.10
2019-04-20T01:20:11.896Z,13.00
2019-04-20T01:23:06.732Z,12.90
2019-04-20T01:25:56.909Z,12.80
2019-04-20T01:28:56.606Z,12.80
2019-04-20T01:31:36.354Z,12.80
2019-04-20T01:34:32.508Z,12.70
2019-04-20T01:37:24.724Z,12.60
2019-04-20T01:40:02.366Z,12.50
2019-04-20T01:42:48.930Z,12.50
2019-04-20T01:45:40.434Z,12.40
2019-04-20T01:48:32.995Z,12.40
2019-04-20T01:51:23.410Z,12.30
2019-04-20T01:54:26.103Z,12.30
2019-04-20T01:57:27.210Z,12.20
2019-04-20T02:00:32.785Z,12.20
2019-04-20T02:03:55.050Z,12.10
2019-04-20T02:06:47.206Z,12.20
2019-04-20T02:09:32.563Z,12.10
2019-04-20T02:12:25.331Z,12.10
2019-04-20T02:15:19.956Z,12.00
2019-04-20T02:18:16.235Z,11.90
2019-04-20T02:21:13.645Z,11.80
2019-04-20T02:23:47.994Z,11.70
2019-04-20T02:26:28.243Z,11.70
2019-04-20T02:29:39.906Z,11.70
2019-04-20T02:35:34.613Z,11.80
2019-04-20T02:38:54.224Z,11.70
2019-04-20T02:41:31.577Z,11.70
2019-04-20T02:44:24.126Z,11.70
2019-04-20T02:47:14.155Z,11.60
2019-04-20T02:50:00.243Z,11.70
2019-04-20T02:52:49.021Z,11.60
2019-04-20T02:55:38.098Z,11.50
2019-04-20T02:58:25.449Z,11.60
2019-04-20T03:01:33.512Z,11.50
2019-04-20T03:04:06.971Z,11.40
2019-04-20T03:07:09.052Z,11.40
2019-04-20T03:10:03.893Z,11.30
2019-04-20T03:12:50.761Z,11.30
2019-04-20T03:15:46.571Z,11.20
2019-04-20T03:18:32.052Z,11.20
2019-04-20T03:21:27.272Z,11.20
2019-04-20T03:24:20.336Z,11.20
2019-04-20T03:27:11.023Z,11.10
2019-04-20T03:30:26.431Z,11.10
2019-04-20T03:33:12.613Z,11.10
2019-04-20T03:35:57.478Z,11.10
2019-04-20T03:38:38.634Z,10.90
2019-04-20T03:41:19.589Z,10.70
2019-04-20T03:44:05.667Z,10.50
2019-04-20T03:46:57.238Z,10.50
2019-04-20T03:50:00.981Z,10.40
2019-04-20T03:53:05.826Z,10.30
2019-04-20T03:55:56.816Z,10.20
2019-04-20T03:59:00.051Z,10.20
2019-04-20T04:02:20.366Z,10.10
2019-04-20T04:04:59.553Z,10.00
2019-04-20T04:07:39.778Z,10.00
2019-04-20T04:10:33.647Z,10.00
2019-04-20T04:13:14.709Z,10.00
2019-04-20T04:16:08.771Z,9.90
2019-04-20T04:19:06.141Z,9.90
2019-04-20T04:22:00.785Z,9.80
2019-04-20T04:24:52.466Z,9.80
2019-04-20T04:27:46.626Z,9.80
2019-04-20T04:30:28.541Z,9.80
2019-04-20T04:33:50.416Z,9.80
2019-04-20T04:36:10.120Z,9.80
2019-04-20T04:39:03.893Z,9.70
2019-04-20T04:42:01.589Z,9.70
2019-04-20T04:44:34.359Z,9.70
2019-04-20T04:47:13.385Z,9.60
2019-04-20T04:50:09.618Z,9.60
2019-04-20T04:52:59.712Z,9.60
2019-04-20T04:55:47.712Z,9.60
2019-04-20T04:58:29.824Z,9.70
2019-04-20T05:01:25.305Z,9.70
2019-04-20T05:04:25.163Z,9.80
2019-04-20T05:07:11.204Z,9.80
2019-04-20T05:09:48.685Z,9.90
2019-04-20T05:12:38.891Z,9.90
2019-04-20T05:15:39.001Z,10.00
2019-04-20T05:18:41.503Z,10.20
2019-04-20T05:21:57.413Z,10.30
2019-04-20T05:24:51.841Z,10.30
2019-04-20T05:27:53.512Z,10.30
2019-04-20T05:30:24.526Z,10.40
2019-04-20T05:33:25.486Z,10.60
2019-04-20T05:36:23.561Z,10.70
2019-04-20T05:41:57.149Z,10.90
2019-04-20T05:44:59.911Z,11.10
2019-04-20T05:47:39.925Z,11.10
2019-04-20T05:50:33.211Z,11.20
2019-04-20T05:53:26.411Z,11.20
2019-04-20T05:56:09.119Z,11.40
2019-04-20T05:58:59.661Z,11.50
2019-04-20T06:01:58.853Z,11.70
2019-04-20T06:04:58.795Z,12.20
2019-04-20T06:07:29.760Z,12.70
2019-04-20T06:10:27.640Z,12.90
2019-04-20T06:13:12.013Z,13.20
2019-04-20T06:16:07.411Z,14.00
2019-04-20T06:19:18.348Z,14.70
2019-04-20T06:22:06.472Z,15.60
2019-04-20T06:25:26.197Z,15.70
2019-04-20T06:27:56.910Z,16.10
2019-04-20T06:30:45.230Z,16.40
2019-04-20T06:34:34.352Z,17.10
2019-04-20T06:37:09.516Z,16.90
2019-04-20T06:40:08.755Z,16.70
2019-04-20T06:42:54.854Z,17.00
2019-04-20T06:45:54.529Z,16.90
2019-04-20T06:48:40.187Z,17.60
2019-04-20T06:51:22.381Z,18.40
2019-04-20T06:54:09.943Z,18.80
2019-04-20T06:57:07.421Z,18.70
2019-04-20T07:00:10.223Z,19.50
2019-04-20T07:05:33.152Z,19.20
2019-04-20T07:08:45.140Z,18.50
2019-04-20T07:11:18.737Z,18.50
2019-04-20T07:13:55.660Z,18.70
2019-04-20T07:17:00.113Z,19.00
2019-04-20T07:19:57.442Z,19.00
2019-04-20T07:22:52.214Z,19.20
2019-04-20T07:25:43.325Z,18.90
2019-04-20T07:28:32.798Z,18.40
2019-04-20T07:31:18.139Z,18.00
2019-04-20T07:34:10.438Z,17.30
2019-04-20T07:37:26.713Z,17.30
2019-04-20T07:39:53.939Z,17.50
2019-04-20T07:42:42.538Z,17.40
2019-04-20T07:45:32.108Z,17.40
2019-04-20T07:48:29.509Z,17.60
2019-04-20T07:51:00.418Z,17.40
2019-04-20T07:53:59.509Z,17.50
2019-04-20T07:56:50.513Z,17.70
2019-04-20T07:59:27.783Z,17.90
2019-04-20T08:02:56.079Z,18.00
2019-04-20T08:05:33.709Z,18.00
2019-04-20T08:08:28.248Z,18.10
2019-04-20T08:11:14.095Z,18.80
2019-04-20T08:14:13.316Z,19.60
2019-04-20T08:17:20.393Z,20.40
2019-04-20T08:19:45.653Z,21.80
2019-04-20T08:22:42.087Z,23.00
2019-04-20T08:25:20.348Z,22.60
2019-04-20T08:28:16.786Z,22.60
2019-04-20T08:31:29.768Z,22.50
2019-04-20T08:34:31.240Z,22.30
2019-04-20T08:37:17.562Z,23.70
2019-04-20T08:40:06.965Z,23.40
2019-04-20T08:43:02.366Z,23.90
2019-04-20T08:45:49.466Z,23.10
2019-04-20T08:48:40.817Z,22.60
2019-04-20T08:51:25.848Z,23.10
2019-04-20T08:54:14.395Z,23.50
2019-04-20T08:56:52.237Z,23.50
2019-04-20T08:59:36.670Z,23.90
2019-04-20T09:02:25.836Z,25.40
2019-04-20T09:05:30.337Z,26.80
2019-04-20T09:08:14.592Z,26.90
2019-04-20T09:11:12.835Z,27.80
2019-04-20T09:13:50.346Z,28.30
2019-04-20T09:16:43.297Z,29.10
2019-04-20T09:19:32.449Z,28.90
2019-04-20T09:22:40.563Z,28.30
2019-04-20T09:25:57.734Z,27.60
2019-04-20T09:28:41.737Z,27.20
2019-04-20T09:31:40.881Z,27.00
2019-04-20T09:34:42.389Z,27.10
2019-04-20T09:37:43.351Z,26.40
2019-04-20T09:40:34.963Z,25.80
2019-04-20T09:43:28.078Z,27.20
2019-04-20T09:46:16.252Z,28.50
2019-04-20T09:49:18.293Z,28.80
2019-04-20T09:52:09.688Z,28.20
2019-04-20T09:54:58.987Z,28.50
2019-04-20T09:57:54.038Z,29.70
2019-04-20T10:00:43.792Z,30.10
2019-04-20T10:03:16.547Z,30.50
2019-04-20T10:06:05.460Z,30.50
2019-04-20T10:08:56.806Z,29.60
2019-04-20T10:11:45.882Z,29.50
2019-04-20T10:14:35.095Z,29.00
2019-04-20T10:17:26.701Z,29.40
2019-04-20T10:20:20.852Z,29.00
2019-04-20T10:23:04.567Z,29.20
2019-04-20T10:25:54.242Z,28.90
2019-04-20T10:28:43.593Z,29.50
2019-04-20T10:31:37.703Z,29.60
2019-04-20T10:34:23.736Z,28.70
2019-04-20T10:37:19.725Z,28.60
2019-04-20T10:40:08.523Z,28.20
2019-04-20T10:42:59.541Z,27.90
2019-04-20T10:45:46.825Z,28.80
2019-04-20T10:48:40.446Z,29.90
2019-04-20T10:51:25.936Z,30.20
2019-04-20T10:54:14.394Z,30.70
2019-04-20T10:57:03.526Z,30.60
2019-04-20T10:59:52.042Z,29.80
2019-04-20T11:02:43.026Z,29.50
2019-04-20T11:05:32.828Z,29.50
2019-04-20T11:08:22.150Z,29.80
2019-04-20T11:11:16.454Z,29.70
2019-04-20T11:14:09.245Z,30.30
2019-04-20T11:16:50.841Z,30.60
2019-04-20T11:19:39.456Z,30.80
2019-04-20T11:22:28.325Z,30.20
2019-04-20T11:25:17.062Z,30.70
2019-04-20T11:28:06.017Z,30.70
2019-04-20T11:30:54.511Z,30.20
2019-04-20T11:33:42.602Z,30.20
2019-04-20T11:36:31.036Z,30.00
2019-04-20T11:39:19.155Z,30.60
2019-04-20T11:42:07.865Z,31.40
2019-04-20T11:44:57.008Z,31.90
2019-04-20T11:47:45.351Z,32.00
2019-04-20T11:50:33.709Z,32.90
2019-04-20T11:53:21.840Z,33.60
2019-04-20T11:56:14.642Z,34.00
2019-04-20T11:59:00.839Z,33.60
2019-04-20T12:02:29.076Z,34.40
2019-04-20T12:05:21.446Z,34.30
2019-04-20T12:08:03.162Z,32.80
2019-04-20T12:10:55.776Z,33.60
2019-04-20T12:13:40.734Z,34.60
2019-04-20T12:16:28.270Z,34.30
2019-04-20T12:19:16.775Z,34.20
2019-04-20T12:22:05.619Z,34.40
2019-04-20T12:24:54.131Z,34.40
2019-04-20T12:27:48.847Z,34.30
2019-04-20T12:30:31.247Z,33.70
2019-04-20T12:33:19.244Z,33.70
2019-04-20T12:36:10.124Z,34.20
2019-04-20T12:38:59.193Z,34.50
2019-04-20T12:41:53.684Z,34.60
2019-04-20T12:44:37.756Z,34.70
2019-04-20T12:47:25.821Z,34.90
2019-04-20T12:50:14.859Z,35.00
2019-04-20T12:53:04.435Z,35.60
2019-04-20T12:55:52.722Z,34.80
2019-04-20T12:58:43.447Z,34.60
2019-04-20T13:01:30.883Z,34.40
2019-04-20T13:04:20.535Z,34.40
2019-04-20T13:07:10.090Z,34.60
2019-04-20T13:09:58.876Z,34.40
2019-04-20T13:13:12.878Z,34.40
2019-04-20T13:16:08.211Z,33.90
2019-04-20T13:18:59.583Z,33.70
2019-04-20T13:21:47.362Z,34.40
2019-04-20T13:24:35.233Z,34.10
2019-04-20T13:27:22.961Z,34.40
2019-04-20T13:30:11.487Z,34.00
2019-04-20T13:32:59.643Z,34.30
2019-04-20T13:35:48.108Z,34.90
2019-04-20T13:38:36.566Z,34.40
2019-04-20T13:41:24.775Z,33.80
2019-04-20T13:44:13.734Z,34.30
2019-04-20T13:47:03.110Z,34.80
2019-04-20T13:49:52.515Z,34.00
2019-04-20T13:52:40.647Z,34.20
2019-04-20T13:55:30.171Z,34.60
2019-04-20T13:58:37.820Z,34.70
2019-04-20T14:01:59.094Z,33.90
2019-04-20T14:04:56.963Z,33.90
2019-04-20T14:07:47.203Z,33.90
2019-04-20T14:10:35.675Z,34.10
2019-04-20T14:13:25.837Z,34.30
2019-04-20T14:16:14.381Z,33.50
2019-04-20T14:19:02.998Z,34.10
2019-04-20T14:21:52.269Z,33.70
2019-04-20T14:24:40.329Z,33.70
2019-04-20T14:27:28.933Z,33.50
2019-04-20T14:30:19.258Z,33.70
2019-04-20T14:33:08.546Z,33.00
2019-04-20T14:35:56.965Z,32.80
2019-04-20T14:38:47.010Z,32.40
2019-04-20T14:41:35.749Z,32.70
2019-04-20T14:44:25.649Z,33.60
2019-04-20T14:47:13.939Z,33.40
2019-04-20T14:50:03.233Z,32.80
2019-04-20T14:52:51.815Z,32.80
2019-04-20T14:55:40.139Z,33.10
2019-04-20T14:58:42.123Z,33.40
2019-04-20T15:01:36.652Z,33.00
2019-04-20T15:04:26.729Z,32.70
2019-04-20T15:07:15.048Z,31.70
2019-04-20T15:10:04.807Z,31.10
2019-04-20T15:12:59.264Z,30.70
2019-04-20T15:15:42.623Z,31.30
2019-04-20T15:18:35.588Z,31.30
2019-04-20T15:21:24.329Z,30.90
2019-04-20T15:24:13.397Z,30.30
2019-04-20T15:27:02.562Z,29.70
2019-04-20T15:29:50.749Z,30.00
2019-04-20T15:32:39.236Z,30.10
2019-04-20T15:35:28.203Z,30.20
2019-04-20T15:38:17.498Z,30.20
2019-04-20T15:41:08.636Z,29.80
2019-04-20T15:43:55.393Z,29.80
2019-04-20T15:46:43.531Z,29.10
2019-04-20T15:49:31.522Z,28.80
2019-04-20T15:52:26.191Z,28.40
2019-04-20T15:55:19.453Z,28.30
2019-04-20T15:58:03.268Z,28.20
2019-04-20T16:00:51.300Z,27.50
2019-04-20T16:03:55.306Z,27.00
2019-04-20T16:06:45.151Z,26.40
2019-04-20T16:09:33.877Z,25.80
2019-04-20T16:12:22.872Z,25.40
2019-04-20T16:15:11.489Z,25.00
2019-04-20T16:18:00.900Z,24.90
2019-04-20T16:20:58.051Z,24.70
2019-04-20T16:23:50.690Z,24.50
2019-04-20T16:26:44.140Z,24.30
2019-04-20T16:29:33.558Z,24.10
2019-04-20T16:32:22.661Z,23.90
2019-04-20T16:35:11.419Z,23.80
2019-04-20T16:38:00.404Z,23.70
2019-04-20T16:40:48.889Z,23.70
2019-04-20T16:43:41.433Z,23.50
2019-04-20T16:46:28.129Z,23.50
2019-04-20T16:49:16.978Z,23.30
2019-04-20T16:52:05.441Z,23.10
2019-04-20T16:54:53.558Z,23.00
2019-04-20T16:57:44.601Z,22.80
2019-04-20T17:00:31.661Z,22.80
2019-04-20T17:03:22.909Z,22.70
2019-04-20T17:06:09.203Z,22.50
2019-04-20T17:08:58.725Z,22.50
2019-04-20T17:11:47.697Z,22.50
2019-04-20T17:14:36.004Z,22.40
2019-04-20T17:17:25.208Z,22.30
2019-04-20T17:20:15.666Z,22.10
2019-04-20T17:23:07.065Z,22.00
2019-04-20T17:25:53.979Z,22.00
2019-04-20T17:29:08.146Z,21.90
2019-04-20T17:32:09.862Z,21.80
2019-04-20T17:35:14.667Z,21.60
2019-04-20T17:37:49.986Z,21.50
2019-04-20T17:40:58.756Z,21.50
2019-04-20T17:43:37.168Z,21.40
2019-04-20T17:46:34.654Z,21.30
2019-04-20T17:49:22.339Z,21.10
2019-04-20T17:52:17.957Z,21.00
2019-04-20T17:54:51.565Z,20.90
2019-04-20T17:57:39.699Z,20.90
2019-04-20T18:00:51.507Z,20.70
2019-04-20T18:04:12.726Z,20.60
2019-04-20T18:06:45.290Z,20.50
2019-04-20T18:09:44.567Z,20.50
2019-04-20T18:12:15.484Z,20.30
2019-04-20T18:15:20.539Z,20.20
2019-04-20T18:18:23.680Z,20.20
2019-04-20T18:21:22.404Z,20.00
2019-04-20T18:24:25.682Z,19.90
2019-04-20T18:27:24.360Z,19.80
2019-04-20T18:30:07.062Z,19.70
2019-04-20T18:32:41.148Z,19.50
2019-04-20T18:35:34.818Z,19.50
2019-04-20T18:38:20.170Z,19.40
2019-04-20T18:41:18.739Z,19.30
2019-04-20T18:43:59.702Z,19.30
2019-04-20T18:47:13.830Z,19.20
2019-04-20T18:49:50.512Z,19.10
2019-04-20T18:52:29.487Z,19.00
2019-04-20T18:55:26.378Z,18.90
2019-04-20T18:58:07.147Z,18.90
2019-04-20T19:00:55.485Z,18.80
2019-04-20T19:03:47.258Z,18.80
2019-04-20T19:06:34.060Z,18.70
2019-04-20T19:09:27.180Z,18.60
2019-04-20T19:12:14.700Z,18.60
2019-04-20T19:15:37.410Z,18.50
2019-04-20T19:18:31.603Z,18.50
2019-04-20T19:21:06.913Z,18.40
2019-04-20T19:24:03.310Z,18.30
2019-04-20T19:26:50.883Z,18.20
2019-04-20T19:29:39.150Z,18.20
2019-04-20T19:32:40.001Z,18.10
2019-04-20T19:35:26.106Z,18.10
2019-04-20T19:38:12.523Z,18.00
2019-04-20T19:41:02.126Z,18.00
2019-04-20T19:43:56.323Z,17.90
2019-04-20T19:46:53.737Z,17.80
2019-04-20T19:49:36.382Z,17.80
2019-04-20T19:52:36.920Z,17.70
2019-04-20T19:55:16.236Z,17.70
2019-04-20T19:58:08.484Z,17.60
2019-04-20T20:00:49.093Z,17.50
2019-04-20T20:03:35.698Z,17.50
2019-04-20T20:06:35.437Z,17.40
2019-04-20T20:09:16.100Z,17.30
2019-04-20T20:12:09.331Z,17.30
2019-04-20T20:14:53.443Z,17.20
2019-04-20T20:18:01.992Z,17.20
2019-04-20T20:20:52.439Z,17.20
2019-04-20T20:23:21.374Z,17.10
2019-04-20T20:26:22.307Z,17.10
2019-04-20T20:29:09.717Z,17.00
2019-04-20T20:32:01.716Z,17.00
2019-04-20T20:34:43.488Z,16.90
2019-04-20T20:37:34.778Z,16.90
2019-04-20T20:40:27.370Z,16.70
2019-04-20T20:43:18.830Z,16.70
2019-04-20T20:46:10.666Z,16.60
2019-04-20T20:49:12.056Z,16.60
2019-04-20T20:51:54.086Z,16.50
2019-04-20T20:54:40.509Z,16.40
2019-04-20T20:57:20.686Z,16.40
2019-04-20T21:00:19.535Z,16.30
2019-04-20T21:03:00.809Z,16.20
2019-04-20T21:05:45.580Z,16.20
2019-04-20T21:08:37.188Z,16.20
2019-04-20T21:11:28.945Z,16.10
2019-04-20T21:14:21.155Z,16.10
2019-04-20T21:17:12.276Z,16.00
2019-04-20T21:20:08.496Z,16.00
2019-04-20T21:23:01.401Z,15.90
2019-04-20T21:25:43.733Z,15.90
2019-04-20T21:28:26.933Z,15.80
2019-04-20T21:31:21.656Z,15.80
2019-04-20T21:34:08.638Z,15.70
2019-04-20T21:36:55.334Z,15.70
2019-04-20T21:39:50.030Z,15.60
2019-04-20T21:42:39.554Z,15.60
2019-04-20T21:45:27.155Z,15.50
2019-04-20T21:48:31.734Z,15.50
2019-04-20T21:51:18.957Z,15.40
2019-04-20T21:53:54.727Z,15.30
2019-04-20T21:56:49.914Z,15.30
2019-04-20T21:59:39.080Z,15.20
2019-04-20T22:02:28.158Z,15.10
2019-04-20T22:05:11.493Z,15.00
2019-04-20T22:08:03.289Z,15.00
2019-04-20T22:10:50.254Z,15.00
2019-04-20T22:13:42.637Z,14.90
2019-04-20T22:16:35.371Z,14.80
2019-04-20T22:19:33.174Z,14.80
2019-04-20T22:22:18.612Z,14.70
2019-04-20T22:25:16.128Z,14.70
2019-04-20T22:27:48.906Z,14.70
2019-04-20T22:30:37.853Z,14.60
2019-04-20T22:33:47.316Z,14.60
2019-04-20T22:36:41.498Z,14.50
2019-04-20T22:39:36.976Z,14.50
2019-04-20T22:42:20.451Z,14.50
2019-04-20T22:45:14.183Z,14.40
2019-04-20T22:48:06.709Z,14.30
2019-04-20T22:51:12.329Z,14.20
2019-04-20T22:53:52.038Z,14.10
2019-04-20T22:56:43.939Z,14.10
2019-04-20T22:59:25.081Z,14.10
2019-04-20T23:02:11.714Z,14.10
2019-04-20T23:05:00.702Z,14.00
2019-04-20T23:07:50.507Z,13.90
2019-04-20T23:10:42.208Z,13.80
2019-04-20T23:13:34.986Z,13.80
2019-04-20T23:16:18.490Z,13.60
2019-04-20T23:19:06.226Z,13.70
2019-04-20T23:21:59.667Z,13.60
2019-04-20T23:24:44.889Z,13.70
2019-04-20T23:27:35.126Z,13.70
2019-04-20T23:30:26.069Z,13.60
2019-04-20T23:33:14.042Z,13.60
2019-04-20T23:36:04.542Z,13.50
2019-04-20T23:38:56.322Z,13.40
2019-04-20T23:41:53.584Z,13.30
2019-04-20T23:45:01.732Z,13.30
2019-04-20T23:47:58.858Z,13.30
2019-04-20T23:50:57.983Z,13.30
2019-04-20T23:53:49.210Z,13.30
2019-04-20T23:56:25.887Z,13.20
2019-04-20T23:59:14.812Z,13.20
